createdAt,value
2018-12-30T00:02:08.811Z,98.70
2018-12-30T00:04:39.321Z,98.90
2018-12-30T00:07:10.162Z,98.90
2018-12-30T00:09:40.649Z,98.90
2018-12-30T00:12:11.160Z,98.90
2018-12-30T00:14:41.702Z,98.90
2018-12-30T00:17:12.217Z,99.00
2018-12-30T00:19:42.794Z,99.10
2018-12-30T00:22:13.366Z,99.30
2018-12-30T00:24:43.837Z,99.50
2018-12-30T00:27:14.355Z,99.30
2018-12-30T00:29:44.834Z,99.20
2018-12-30T00:32:15.323Z,99.20
2018-12-30T00:34:45.972Z,99.10
2018-12-30T00:37:16.469Z,99.10
2018-12-30T00:39:46.975Z,99.20
2018-12-30T00:42:17.444Z,99.30
2018-12-30T00:44:47.949Z,99.40
2018-12-30T00:47:18.452Z,99.30
2018-12-30T00:49:48.923Z,99.30
2018-12-30T00:52:19.433Z,99.40
2018-12-30T00:54:49.928Z,99.40
2018-12-30T00:57:20.479Z,99.10
2018-12-30T00:59:50.995Z,99.50
2018-12-30T01:02:21.464Z,99.20
2018-12-30T01:04:51.963Z,99.20
2018-12-30T01:07:22.459Z,99.20
2018-12-30T01:09:52.932Z,98.90
2018-12-30T01:12:23.432Z,98.80
2018-12-30T01:14:53.946Z,98.90
2018-12-30T01:17:24.417Z,98.90
2018-12-30T01:19:54.921Z,98.90
2018-12-30T01:22:25.503Z,98.90
2018-12-30T01:24:57.898Z,98.80
2018-12-30T01:27:28.400Z,98.70
2018-12-30T01:29:58.870Z,98.60
2018-12-30T01:32:29.359Z,98.50
2018-12-30T01:35:00.262Z,98.60
2018-12-30T01:37:30.807Z,98.60
2018-12-30T01:40:01.311Z,98.60
2018-12-30T01:42:31.816Z,98.80
2018-12-30T01:45:02.296Z,98.70
2018-12-30T01:47:32.791Z,98.70
2018-12-30T01:50:03.296Z,98.60
2018-12-30T01:52:34.442Z,98.70
2018-12-30T01:55:05.883Z,98.70
2018-12-30T01:57:36.353Z,98.60
2018-12-30T02:00:07.586Z,98.70
2018-12-30T02:02:38.062Z,99.00
2018-12-30T02:05:08.558Z,99.10
2018-12-30T02:07:39.038Z,99.20
2018-12-30T02:10:10.051Z,99.40
2018-12-30T02:12:40.515Z,99.30
2018-12-30T02:15:11.011Z,99.40
2018-12-30T02:17:41.483Z,99.60
2018-12-30T02:20:12.001Z,99.80
2018-12-30T02:22:42.467Z,99.90
2018-12-30T02:25:12.975Z,99.90
2018-12-30T02:27:43.449Z,99.90
2018-12-30T02:30:14.627Z,99.80
2018-12-30T02:32:45.209Z,99.70
2018-12-30T02:35:15.682Z,99.60
2018-12-30T02:37:46.192Z,99.70
2018-12-30T02:40:16.691Z,99.60
2018-12-30T02:42:47.167Z,99.50
2018-12-30T02:45:17.663Z,99.40
2018-12-30T02:47:48.140Z,99.40
2018-12-30T02:50:18.642Z,99.60
2018-12-30T02:52:49.112Z,99.60
2018-12-30T02:55:19.647Z,99.60
2018-12-30T02:57:50.156Z,99.50
2018-12-30T03:00:20.659Z,99.70
2018-12-30T03:02:51.133Z,99.80
2018-12-30T03:05:22.011Z,99.90
2018-12-30T03:07:52.505Z,99.70
2018-12-30T03:10:23.005Z,99.90
2018-12-30T03:12:53.474Z,99.90
2018-12-30T03:15:23.965Z,99.90
2018-12-30T03:17:54.463Z,99.90
2018-12-30T03:20:24.952Z,99.90
2018-12-30T03:22:55.451Z,99.60
2018-12-30T03:25:25.924Z,99.90
2018-12-30T03:27:56.428Z,99.70
2018-12-30T03:30:26.898Z,99.70
2018-12-30T03:32:57.403Z,99.80
2018-12-30T03:35:27.880Z,99.80
2018-12-30T03:37:58.457Z,99.80
2018-12-30T03:40:28.952Z,99.70
2018-12-30T03:42:59.431Z,99.80
2018-12-30T03:45:29.901Z,99.90
2018-12-30T03:48:00.399Z,99.90
2018-12-30T03:50:30.873Z,99.90
2018-12-30T03:53:01.380Z,99.90
2018-12-30T03:55:31.870Z,99.90
2018-12-30T03:58:02.365Z,99.70
2018-12-30T04:00:32.845Z,99.80
2018-12-30T04:03:03.358Z,99.80
2018-12-30T04:05:33.828Z,99.60
2018-12-30T04:08:04.321Z,99.50
2018-12-30T04:10:34.830Z,99.50
2018-12-30T04:13:05.333Z,99.60
2018-12-30T04:15:35.797Z,99.70
2018-12-30T04:18:07.064Z,99.90
2018-12-30T04:20:37.536Z,99.80
2018-12-30T04:23:09.514Z,99.80
2018-12-30T04:25:39.984Z,99.70
2018-12-30T04:28:10.480Z,99.70
2018-12-30T04:30:40.945Z,99.60
2018-12-30T04:33:11.502Z,99.70
2018-12-30T04:35:41.969Z,99.60
2018-12-30T04:38:12.468Z,99.80
2018-12-30T04:40:42.939Z,99.80
2018-12-30T04:43:13.440Z,99.80
2018-12-30T04:45:43.907Z,99.90
2018-12-30T04:48:14.411Z,99.90
2018-12-30T04:50:44.874Z,99.70
2018-12-30T04:53:15.366Z,99.50
2018-12-30T04:55:45.870Z,99.50
2018-12-30T04:58:18.242Z,99.70
2018-12-30T05:00:48.717Z,99.80
2018-12-30T05:03:19.223Z,99.90
2018-12-30T05:05:49.741Z,99.90
2018-12-30T05:08:20.220Z,99.80
2018-12-30T05:10:50.707Z,99.80
2018-12-30T05:13:21.210Z,99.90
2018-12-30T05:15:51.693Z,99.90
2018-12-30T05:18:22.175Z,99.90
2018-12-30T05:20:52.658Z,99.90
2018-12-30T05:23:23.177Z,99.90
2018-12-30T05:25:53.630Z,99.90
2018-12-30T05:28:24.131Z,99.90
2018-12-30T05:30:54.655Z,99.90
2018-12-30T05:33:25.112Z,99.90
2018-12-30T05:35:55.635Z,99.90
2018-12-30T05:38:26.115Z,99.90
2018-12-30T05:40:56.622Z,99.90
2018-12-30T05:43:27.102Z,99.90
2018-12-30T05:45:57.598Z,99.90
2018-12-30T05:48:28.063Z,99.90
2018-12-30T05:50:58.556Z,99.90
2018-12-30T05:53:29.045Z,99.90
2018-12-30T05:55:59.518Z,99.90
2018-12-30T05:58:30.019Z,99.90
2018-12-30T06:01:00.497Z,99.90
2018-12-30T06:03:30.990Z,99.90
2018-12-30T06:06:01.464Z,99.90
2018-12-30T06:08:31.975Z,99.90
2018-12-30T06:11:02.518Z,99.90
2018-12-30T06:13:33.012Z,99.90
2018-12-30T06:16:03.527Z,99.90
2018-12-30T06:18:33.993Z,99.90
2018-12-30T06:21:04.506Z,99.90
2018-12-30T06:23:35.041Z,99.90
2018-12-30T06:26:06.458Z,99.90
2018-12-30T06:28:36.921Z,99.90
2018-12-30T06:31:07.424Z,99.90
2018-12-30T06:33:37.892Z,99.90
2018-12-30T06:36:10.218Z,99.90
2018-12-30T06:38:40.685Z,99.90
2018-12-30T06:41:11.190Z,99.90
2018-12-30T06:43:41.663Z,99.90
2018-12-30T06:46:12.230Z,99.90
2018-12-30T06:48:42.729Z,99.90
2018-12-30T06:51:13.202Z,99.90
2018-12-30T06:53:43.695Z,99.90
2018-12-30T06:56:14.177Z,99.90
2018-12-30T06:58:44.671Z,99.90
2018-12-30T07:01:15.177Z,99.90
2018-12-30T07:03:45.656Z,99.90
2018-12-30T07:06:16.163Z,99.90
2018-12-30T07:08:46.664Z,99.90
2018-12-30T07:11:17.156Z,99.90
2018-12-30T07:13:47.627Z,99.90
2018-12-30T07:16:19.687Z,99.90
2018-12-30T07:18:50.150Z,99.90
2018-12-30T07:21:20.665Z,99.90
2018-12-30T07:23:51.137Z,99.90
2018-12-30T07:26:21.640Z,99.90
2018-12-30T07:28:52.111Z,99.90
2018-12-30T07:31:22.616Z,99.90
2018-12-30T07:33:53.081Z,99.90
2018-12-30T07:36:23.575Z,99.90
2018-12-30T07:38:54.195Z,99.90
2018-12-30T07:41:24.766Z,99.90
2018-12-30T07:43:55.234Z,99.90
2018-12-30T07:46:25.741Z,99.90
2018-12-30T07:48:56.350Z,99.90
2018-12-30T07:51:26.795Z,99.90
2018-12-30T07:53:57.302Z,99.90
2018-12-30T07:56:27.786Z,99.90
2018-12-30T07:58:58.291Z,99.90
2018-12-30T08:01:28.790Z,99.90
2018-12-30T08:03:59.268Z,99.90
2018-12-30T08:06:29.768Z,99.90
2018-12-30T08:09:00.238Z,99.90
2018-12-30T08:11:30.736Z,99.90
2018-12-30T08:14:01.209Z,99.90
2018-12-30T08:16:31.715Z,99.90
2018-12-30T08:19:02.206Z,99.90
2018-12-30T08:21:32.734Z,99.90
2018-12-30T08:24:03.785Z,99.90
2018-12-30T08:26:34.284Z,99.90
2018-12-30T08:29:04.869Z,99.90
2018-12-30T08:31:35.348Z,99.90
2018-12-30T08:34:05.840Z,99.90
2018-12-30T08:36:36.494Z,99.90
2018-12-30T08:39:08.244Z,99.90
2018-12-30T08:41:38.714Z,99.90
2018-12-30T08:44:09.288Z,99.90
2018-12-30T08:46:39.763Z,99.90
2018-12-30T08:49:10.259Z,99.90
2018-12-30T08:51:40.754Z,99.90
2018-12-30T08:54:11.233Z,99.90
2018-12-30T08:56:41.729Z,99.90
2018-12-30T08:59:12.213Z,99.90
2018-12-30T09:01:42.712Z,99.90
2018-12-30T09:04:13.188Z,99.90
2018-12-30T09:06:43.694Z,99.90
2018-12-30T09:09:14.180Z,99.90
2018-12-30T09:11:44.650Z,99.90
2018-12-30T09:14:15.150Z,99.90
2018-12-30T09:16:45.634Z,99.90
2018-12-30T09:19:16.132Z,99.90
2018-12-30T09:21:46.628Z,99.90
2018-12-30T09:24:17.105Z,99.90
2018-12-30T09:27:06.938Z,99.90
2018-12-30T09:29:37.427Z,99.90
2018-12-30T09:32:07.929Z,99.90
2018-12-30T09:34:38.426Z,99.90
2018-12-30T09:37:09.002Z,99.90
2018-12-30T09:39:39.487Z,99.90
2018-12-30T09:42:09.983Z,99.90
2018-12-30T09:44:40.480Z,99.90
2018-12-30T09:47:11.019Z,99.90
2018-12-30T09:49:41.800Z,99.90
2018-12-30T09:52:12.266Z,99.90
2018-12-30T09:54:42.735Z,99.90
2018-12-30T09:57:13.252Z,99.90
2018-12-30T09:59:43.749Z,99.90
2018-12-30T10:02:14.221Z,99.90
2018-12-30T10:04:44.719Z,99.90
2018-12-30T10:07:15.206Z,99.90
2018-12-30T10:09:45.706Z,99.90
2018-12-30T10:12:16.179Z,99.90
2018-12-30T10:14:46.686Z,99.90
2018-12-30T10:17:17.164Z,99.90
2018-12-30T10:19:47.672Z,99.90
2018-12-30T10:22:18.170Z,99.90
2018-12-30T10:24:48.649Z,99.90
2018-12-30T10:27:19.149Z,99.90
2018-12-30T10:29:49.629Z,99.90
2018-12-30T10:32:20.131Z,99.90
2018-12-30T10:34:50.598Z,99.90
2018-12-30T10:37:21.106Z,99.90
2018-12-30T10:39:51.579Z,99.90
2018-12-30T10:42:22.092Z,99.90
2018-12-30T10:44:52.586Z,99.90
2018-12-30T10:47:23.083Z,99.90
2018-12-30T10:49:53.583Z,99.90
2018-12-30T10:52:24.076Z,99.90
2018-12-30T10:54:54.551Z,99.50
2018-12-30T10:57:25.075Z,98.70
2018-12-30T10:59:55.551Z,97.90
2018-12-30T11:02:26.060Z,98.20
2018-12-30T11:04:56.611Z,97.60
2018-12-30T11:07:27.182Z,97.40
2018-12-30T11:10:00.004Z,97.60
2018-12-30T11:12:33.137Z,98.10
2018-12-30T11:15:03.711Z,97.70
2018-12-30T11:17:34.183Z,97.80
2018-12-30T11:20:06.114Z,97.80
2018-12-30T11:22:36.626Z,97.60
2018-12-30T11:25:07.631Z,97.90
2018-12-30T11:27:38.162Z,97.90
2018-12-30T11:30:10.052Z,97.50
2018-12-30T11:32:40.965Z,97.60
2018-12-30T11:35:11.505Z,97.60
2018-12-30T11:37:41.969Z,97.60
2018-12-30T11:40:12.460Z,97.40
2018-12-30T11:42:42.937Z,96.30
2018-12-30T11:45:13.449Z,96.30
2018-12-30T11:47:43.935Z,96.20
2018-12-30T11:50:14.406Z,96.40
2018-12-30T11:52:44.896Z,95.20
2018-12-30T11:55:15.367Z,95.00
2018-12-30T11:57:45.856Z,95.20
2018-12-30T12:00:16.390Z,95.20
2018-12-30T12:02:46.890Z,95.60
2018-12-30T12:05:17.367Z,95.60
2018-12-30T12:07:47.871Z,95.90
2018-12-30T12:10:18.343Z,95.80
2018-12-30T12:12:49.437Z,95.40
2018-12-30T12:15:20.082Z,94.90
2018-12-30T12:17:50.575Z,94.70
2018-12-30T12:20:21.034Z,94.80
2018-12-30T12:22:51.528Z,94.70
2018-12-30T12:25:21.987Z,94.50
2018-12-30T12:27:52.493Z,94.40
2018-12-30T12:30:22.991Z,94.40
2018-12-30T12:32:53.478Z,94.70
2018-12-30T12:35:23.950Z,94.70
2018-12-30T12:37:54.457Z,94.00
2018-12-30T12:40:25.004Z,94.00
2018-12-30T12:42:55.505Z,94.20
2018-12-30T12:45:25.988Z,94.40
2018-12-30T12:47:56.454Z,94.50
2018-12-30T12:50:26.978Z,94.80
2018-12-30T12:52:57.435Z,95.00
2018-12-30T12:55:27.977Z,95.00
2018-12-30T12:57:58.519Z,94.90
2018-12-30T13:00:28.980Z,94.50
2018-12-30T13:02:59.475Z,94.40
2018-12-30T13:05:29.935Z,94.40
2018-12-30T13:08:00.420Z,94.00
2018-12-30T13:10:30.896Z,94.10
2018-12-30T13:13:01.425Z,94.20
2018-12-30T13:15:31.872Z,94.50
2018-12-30T13:18:02.404Z,94.40
2018-12-30T13:20:32.891Z,94.30
2018-12-30T13:23:03.397Z,94.10
2018-12-30T13:25:34.132Z,94.30
2018-12-30T13:28:04.641Z,94.20
2018-12-30T13:30:35.099Z,93.90
2018-12-30T13:33:05.678Z,93.60
2018-12-30T13:35:43.177Z,93.60
2018-12-30T13:38:08.339Z,94.00
2018-12-30T13:40:38.830Z,94.20
2018-12-30T13:43:09.318Z,94.10
2018-12-30T13:45:39.807Z,94.30
2018-12-30T13:48:10.304Z,94.50
2018-12-30T13:50:40.783Z,94.90
2018-12-30T13:53:11.291Z,95.40
2018-12-30T13:55:41.763Z,95.60
2018-12-30T13:58:12.274Z,95.70
2018-12-30T14:00:42.750Z,96.00
2018-12-30T14:03:13.247Z,96.00
2018-12-30T14:05:44.578Z,96.40
2018-12-30T14:08:15.080Z,96.60
2018-12-30T14:10:45.551Z,97.00
2018-12-30T14:13:16.051Z,97.20
2018-12-30T14:15:50.792Z,97.20
2018-12-30T14:18:18.741Z,97.30
2018-12-30T14:20:49.208Z,97.40
2018-12-30T14:23:19.727Z,97.30
2018-12-30T14:25:50.200Z,97.40
2018-12-30T14:28:20.690Z,97.60
2018-12-30T14:30:51.161Z,97.80
2018-12-30T14:33:21.676Z,97.90
2018-12-30T14:35:52.148Z,97.80
2018-12-30T14:38:22.643Z,97.70
2018-12-30T14:40:53.114Z,97.70
2018-12-30T14:43:23.628Z,97.80
2018-12-30T14:45:54.102Z,97.80
2018-12-30T14:48:24.619Z,98.00
2018-12-30T14:50:55.092Z,98.20
2018-12-30T14:53:25.613Z,98.20
2018-12-30T14:55:56.069Z,98.30
2018-12-30T14:58:26.599Z,98.40
2018-12-30T15:00:58.940Z,98.50
2018-12-30T15:03:29.429Z,98.60
2018-12-30T15:05:59.935Z,98.80
2018-12-30T15:08:30.410Z,98.90
2018-12-30T15:11:00.914Z,99.00
2018-12-30T15:13:31.394Z,99.00
2018-12-30T15:16:01.894Z,99.10
2018-12-30T15:18:32.364Z,99.20
2018-12-30T15:21:02.881Z,99.30
2018-12-30T15:23:33.377Z,99.30
2018-12-30T15:26:03.857Z,99.30
2018-12-30T15:28:34.377Z,99.50
2018-12-30T15:31:04.930Z,99.50
2018-12-30T15:33:35.424Z,99.50
2018-12-30T15:36:05.902Z,99.60
2018-12-30T15:38:36.414Z,99.80
2018-12-30T15:41:06.894Z,99.70
2018-12-30T15:43:37.385Z,99.70
2018-12-30T15:46:07.859Z,99.70
2018-12-30T15:48:40.568Z,99.80
2018-12-30T15:51:11.028Z,99.90
2018-12-30T15:53:41.531Z,99.90
2018-12-30T15:56:12.057Z,99.90
2018-12-30T15:58:42.536Z,99.90
2018-12-30T16:01:13.047Z,99.90
2018-12-30T16:03:43.542Z,99.90
2018-12-30T16:06:14.022Z,99.90
2018-12-30T16:08:44.521Z,99.90
2018-12-30T16:11:15.005Z,99.90
2018-12-30T16:13:45.520Z,99.90
2018-12-30T16:16:16.058Z,99.90
2018-12-30T16:18:46.554Z,99.90
2018-12-30T16:21:17.042Z,99.90
2018-12-30T16:23:47.547Z,99.90
2018-12-30T16:26:18.021Z,99.90
2018-12-30T16:28:48.523Z,99.90
2018-12-30T16:31:27.902Z,99.90
2018-12-30T16:33:52.839Z,99.90
2018-12-30T16:36:23.313Z,99.90
2018-12-30T16:38:53.812Z,99.90
2018-12-30T16:41:24.285Z,99.90
2018-12-30T16:43:54.799Z,99.90
2018-12-30T16:46:25.264Z,99.90
2018-12-30T16:48:55.766Z,99.90
2018-12-30T16:51:26.270Z,99.90
2018-12-30T16:53:56.757Z,99.90
2018-12-30T16:56:27.251Z,99.90
2018-12-30T16:58:57.736Z,99.90
2018-12-30T17:01:28.211Z,99.90
2018-12-30T17:03:58.717Z,99.90
2018-12-30T17:06:33.889Z,99.90
2018-12-30T17:09:02.376Z,99.90
2018-12-30T17:11:32.886Z,99.90
2018-12-30T17:14:03.365Z,99.90
2018-12-30T17:16:33.834Z,99.90
2018-12-30T17:19:04.341Z,99.90
2018-12-30T17:21:34.873Z,99.90
2018-12-30T17:24:07.448Z,99.90
2018-12-30T17:26:37.960Z,99.90
2018-12-30T17:29:08.450Z,99.90
2018-12-30T17:31:42.888Z,99.90
2018-12-30T17:34:13.375Z,99.90
2018-12-30T17:36:43.855Z,99.90
2018-12-30T17:39:14.442Z,99.90
2018-12-30T17:41:45.013Z,99.90
2018-12-30T17:44:17.388Z,99.90
2018-12-30T17:46:47.760Z,99.90
2018-12-30T17:49:18.246Z,99.90
2018-12-30T17:51:48.750Z,99.90
2018-12-30T17:54:19.222Z,99.90
2018-12-30T17:56:49.723Z,99.90
2018-12-30T17:59:20.204Z,99.90
2018-12-30T18:01:50.707Z,99.90
2018-12-30T18:04:21.180Z,99.90
2018-12-30T18:06:51.692Z,99.90
2018-12-30T18:09:22.168Z,99.90
2018-12-30T18:11:52.693Z,99.90
2018-12-30T18:14:23.153Z,99.90
2018-12-30T18:16:53.653Z,99.90
2018-12-30T18:19:24.162Z,99.90
2018-12-30T18:21:54.641Z,99.90
2018-12-30T18:24:25.138Z,99.90
2018-12-30T18:26:55.619Z,99.90
2018-12-30T18:29:26.138Z,99.90
2018-12-30T18:31:56.897Z,99.90
2018-12-30T18:34:27.399Z,99.90
2018-12-30T18:36:57.975Z,99.90
2018-12-30T18:39:28.477Z,99.90
2018-12-30T18:41:58.942Z,99.90
2018-12-30T18:44:29.448Z,99.90
2018-12-30T18:46:59.912Z,99.90
2018-12-30T18:49:30.417Z,99.90
2018-12-30T18:52:00.898Z,99.90
2018-12-30T18:54:31.871Z,99.90
2018-12-30T18:57:02.344Z,99.90
2018-12-30T18:59:32.847Z,99.90
2018-12-30T19:02:04.187Z,99.90
2018-12-30T19:04:34.700Z,99.90
2018-12-30T19:07:05.246Z,99.90
2018-12-30T19:09:35.747Z,99.90
2018-12-30T19:12:06.224Z,99.90
2018-12-30T19:14:38.342Z,99.90
2018-12-30T19:17:08.818Z,99.90
2018-12-30T19:19:39.326Z,99.90
2018-12-30T19:22:09.807Z,99.90
2018-12-30T19:24:41.861Z,99.90
2018-12-30T19:27:12.328Z,99.90
2018-12-30T19:29:42.833Z,99.90
2018-12-30T19:32:13.375Z,99.90
2018-12-30T19:34:43.896Z,99.90
2018-12-30T19:37:14.408Z,99.90
2018-12-30T19:39:44.886Z,99.90
2018-12-30T19:42:15.383Z,99.90
2018-12-30T19:44:45.857Z,99.90
2018-12-30T19:47:16.373Z,99.90
2018-12-30T19:49:46.854Z,99.90
2018-12-30T19:52:17.352Z,99.90
2018-12-30T19:54:47.859Z,99.90
2018-12-30T19:57:18.324Z,99.90
2018-12-30T19:59:48.830Z,99.90
2018-12-30T20:02:19.336Z,99.90
2018-12-30T20:04:50.706Z,99.90
2018-12-30T20:07:21.181Z,99.90
2018-12-30T20:09:51.682Z,99.90
2018-12-30T20:12:22.164Z,99.90
2018-12-30T20:14:52.669Z,99.90
2018-12-30T20:17:23.131Z,99.90
2018-12-30T20:19:53.642Z,99.90
2018-12-30T20:22:24.120Z,99.90
2018-12-30T20:24:54.619Z,99.90
2018-12-30T20:27:25.087Z,99.90
2018-12-30T20:29:55.592Z,99.90
2018-12-30T20:32:26.064Z,99.90
2018-12-30T20:34:56.641Z,99.90
2018-12-30T20:37:27.151Z,99.90
2018-12-30T20:39:57.623Z,99.90
2018-12-30T20:42:28.113Z,99.90
2018-12-30T20:44:58.636Z,99.90
2018-12-30T20:47:29.813Z,99.90
2018-12-30T20:50:00.322Z,99.90
2018-12-30T20:52:30.816Z,99.90
2018-12-30T20:55:01.361Z,99.90
2018-12-30T20:57:31.826Z,99.90
2018-12-30T21:00:02.330Z,99.90
2018-12-30T21:02:32.817Z,99.90
2018-12-30T21:05:04.958Z,99.90
2018-12-30T21:07:35.436Z,99.90
2018-12-30T21:10:07.485Z,99.90
2018-12-30T21:12:37.953Z,99.90
2018-12-30T21:15:08.534Z,99.90
2018-12-30T21:17:39.044Z,99.90
2018-12-30T21:20:09.598Z,99.90
2018-12-30T21:22:40.107Z,99.90
2018-12-30T21:25:10.579Z,99.90
2018-12-30T21:27:41.117Z,99.90
2018-12-30T21:30:11.705Z,99.90
2018-12-30T21:32:42.174Z,99.90
2018-12-30T21:35:12.650Z,99.90
2018-12-30T21:37:43.166Z,99.90
2018-12-30T21:40:13.632Z,99.90
2018-12-30T21:42:44.222Z,99.90
2018-12-30T21:45:14.747Z,99.90
2018-12-30T21:47:46.017Z,99.90
2018-12-30T21:50:16.716Z,99.90
2018-12-30T21:52:47.220Z,99.90
2018-12-30T21:55:17.689Z,99.90
2018-12-30T21:57:48.359Z,99.90
2018-12-30T22:00:18.907Z,99.90
2018-12-30T22:02:49.415Z,99.90
2018-12-30T22:05:19.885Z,99.90
2018-12-30T22:07:50.382Z,99.90
2018-12-30T22:10:20.899Z,99.90
2018-12-30T22:12:51.362Z,99.90
2018-12-30T22:15:21.869Z,99.90
2018-12-30T22:17:52.362Z,99.90
2018-12-30T22:20:22.858Z,99.90
2018-12-30T22:22:53.337Z,99.90
2018-12-30T22:25:23.835Z,99.90
2018-12-30T22:27:54.343Z,99.90
2018-12-30T22:30:24.834Z,99.90
2018-12-30T22:32:55.346Z,99.90
2018-12-30T22:35:25.811Z,99.90
2018-12-30T22:37:56.311Z,99.90
2018-12-30T22:40:26.792Z,99.90
2018-12-30T22:42:57.298Z,99.90
2018-12-30T22:45:27.783Z,99.90
2018-12-30T22:47:58.274Z,99.90
2018-12-30T22:50:28.785Z,99.90
2018-12-30T22:52:59.270Z,99.90
2018-12-30T22:55:29.771Z,99.90
2018-12-30T22:58:00.243Z,99.90
2018-12-30T23:00:48.495Z,99.90
2018-12-30T23:03:19.001Z,99.90
2018-12-30T23:05:49.475Z,99.90
2018-12-30T23:08:19.976Z,99.90
2018-12-30T23:10:52.094Z,99.90
2018-12-30T23:13:22.584Z,99.90
2018-12-30T23:15:53.090Z,99.90
2018-12-30T23:18:23.561Z,99.90
2018-12-30T23:20:54.059Z,99.90
2018-12-30T23:23:24.551Z,99.90
2018-12-30T23:25:55.019Z,99.90
2018-12-30T23:28:25.521Z,99.90
2018-12-30T23:30:55.992Z,99.90
2018-12-30T23:33:26.484Z,99.90
2018-12-30T23:35:56.961Z,99.90
2018-12-30T23:38:27.456Z,99.90
2018-12-30T23:40:57.959Z,99.90
2018-12-30T23:43:28.427Z,99.90
2018-12-30T23:45:58.937Z,99.90
2018-12-30T23:48:29.433Z,99.90
2018-12-30T23:50:59.913Z,99.90
2018-12-30T23:53:30.410Z,99.90
2018-12-30T23:56:00.890Z,99.90
2018-12-30T23:58:32.285Z,99.90
